Time;durP1;ratioP1;P1;durP2;ratioP2;P2;SDS_P1;SDS_P2;PMS_P1;PMS_P2;Temp;Humidity;BMP_temperature;BMP_pressure;BME280_temperature;BME280_humidity;BME280_pressure;Samples;Min_cycle;Max_cycle;Signal;HPM_P1;HPM_P2
2022/02/04 00:09:38;;;;;;;18.75;16.15;;;10.50;84.80;;;;;;5053881;28;20043;-75
2022/02/04 00:27:59;;;;;;;21.08;17.08;;;10.40;84.80;;;;;;5071921;28;20036;-76
2022/02/04 00:30:31;;;;;;;19.70;16.42;;;10.40;84.80;;;;;;5054079;28;20024;-75
2022/02/04 00:32:59;;;;;;;;;;;10.40;84.80;;;;;;5060215;28;20021;-76
2022/02/04 00:35:56;;;;;;;20.30;16.48;;;10.50;85.00;;;;;;5036564;28;19935;-76
2022/02/04 00:38:29;;;;;;;19.10;16.25;;;10.50;84.90;;;;;;5034844;28;20029;-76
2022/02/04 00:41:01;;;;;;;19.55;16.42;;;10.40;84.80;;;;;;5052614;28;20582;-76
2022/02/04 00:43:28;;;;;;;19.90;16.60;;;10.50;84.80;;;;;;5036344;28;20028;-75
2022/02/04 00:46:03;;;;;;;20.40;16.98;;;10.50;84.80;;;;;;5043563;28;20039;-76
2022/02/04 01:28:21;;;;;;;21.55;17.45;;;10.40;85.10;;;;;;5061182;28;20629;-75
2022/02/04 01:30:47;;;;;;;21.70;17.10;;;10.50;85.10;;;;;;5053298;28;20039;-75
2022/02/04 01:33:13;;;;;;;21.45;17.30;;;10.40;85.00;;;;;;5054279;28;20025;-75
2022/02/04 01:35:39;;;;;;;21.75;18.02;;;10.40;85.00;;;;;;5063372;28;20025;-75
2022/02/04 01:38:04;;;;;;;20.27;17.02;;;10.50;85.10;;;;;;5036375;28;20439;-76
2022/02/04 01:40:30;;;;;;;21.08;18.13;;;10.40;85.10;;;;;;5062162;28;20082;-76
2022/02/04 01:42:55;;;;;;;21.27;17.70;;;10.40;85.00;;;;;;5068738;28;20052;-76
2022/02/04 01:45:21;;;;;;;21.08;17.42;;;10.40;85.50;;;;;;5052416;28;20041;-76
2022/02/04 01:47:56;;;;;;;21.83;18.13;;;10.50;85.20;;;;;;5054069;28;20032;-75
2022/02/04 01:50:27;;;;;;;21.88;18.13;;;10.50;85.20;;;;;;5045679;28;20500;-77
2022/02/04 01:52:57;;;;;;;22.10;18.08;;;10.40;85.10;;;;;;5060073;28;20071;-75
2022/02/04 01:55:24;;;;;;;21.95;18.10;;;10.40;85.10;;;;;;5058006;28;20035;-76
2022/02/04 01:57:50;;;;;;;23.02;17.75;;;10.40;85.10;;;;;;5076041;28;20539;-76
2022/02/04 02:00:17;;;;;;;22.70;18.35;;;10.40;85.20;;;;;;5049518;28;20017;-76
2022/02/04 02:02:42;;;;;;;23.55;17.67;;;10.50;85.20;;;;;;5038120;28;20104;-76
2022/02/04 02:05:08;;;;;;;22.27;18.33;;;10.40;85.10;;;;;;5045025;28;20044;-75
2022/02/04 02:07:41;;;;;;;21.77;18.25;;;10.50;85.30;;;;;;5064262;28;20030;-75
2022/02/04 02:10:11;;;;;;;23.23;17.77;;;10.40;85.20;;;;;;5051511;28;20029;-76
2022/02/04 02:12:50;;;;;;;21.10;17.45;;;10.40;85.20;;;;;;5055702;28;20063;-76
2022/02/04 02:42:35;;;;;;;21.83;18.20;;;10.40;85.20;;;;;;5058649;28;20108;-76
2022/02/04 02:45:22;;;;;;;22.40;17.83;;;10.40;85.20;;;;;;5043522;28;20493;-76
2022/02/04 02:48:14;;;;;;;22.25;17.95;;;10.50;85.30;;;;;;5055015;28;20025;-76
2022/02/04 02:53:41;;;;;;;21.00;17.63;;;10.50;85.30;;;;;;5055213;28;20033;-76
2022/02/04 02:58:29;;;;;;;23.20;19.20;;;10.40;85.30;;;;;;5064420;28;20020;-75
2022/02/04 03:03:24;;;;;;;23.60;19.10;;;10.40;85.30;;;;;;5060472;28;20032;-76
2022/02/04 03:05:50;;;;;;;24.77;18.20;;;10.40;85.30;;;;;;5067634;28;20036;-75
2022/02/04 03:08:15;;;;;;;22.33;18.67;;;10.40;85.40;;;;;;5055577;28;20033;-75
2022/02/04 03:10:41;;;;;;;25.48;19.15;;;10.40;85.40;;;;;;5046864;28;20102;-76
2022/02/04 03:13:07;;;;;;;22.92;18.17;;;10.40;85.40;;;;;;5071688;28;20031;-76
2022/02/04 03:15:37;;;;;;;21.55;17.90;;;10.40;85.40;;;;;;5074502;28;20101;-75
2022/02/04 03:18:08;;;;;;;21.92;18.30;;;10.40;85.40;;;;;;5056943;28;20025;-76
2022/02/04 03:20:46;;;;;;;29.42;18.10;;;10.40;85.40;;;;;;5068773;28;20075;-75
2022/02/04 03:23:12;;;;;;;23.10;18.20;;;10.40;85.40;;;;;;5054686;28;20441;-76
2022/02/04 03:25:42;;;;;;;22.13;18.17;;;10.40;85.40;;;;;;5040565;28;20028;-76
2022/02/04 03:28:12;;;;;;;21.48;18.00;;;10.40;85.40;;;;;;5061883;28;20512;-76
2022/02/04 03:30:40;;;;;;;21.55;17.95;;;10.40;85.40;;;;;;5056128;28;20036;-76
2022/02/04 03:33:07;;;;;;;20.95;17.85;;;10.40;85.40;;;;;;5049387;28;20025;-76
2022/02/04 03:35:33;;;;;;;22.42;18.45;;;10.40;85.40;;;;;;5036244;28;20036;-76
2022/02/04 03:38:00;;;;;;;21.38;17.85;;;10.40;85.40;;;;;;5054438;28;20025;-76
2022/02/04 03:40:28;;;;;;;21.33;17.50;;;10.40;85.50;;;;;;5036287;28;20052;-76
2022/02/04 03:42:53;;;;;;;21.88;17.60;;;10.40;85.50;;;;;;5053271;28;20020;-76
2022/02/04 03:45:21;;;;;;;22.05;17.75;;;10.40;85.50;;;;;;5052469;28;20123;-76
2022/02/04 03:47:46;;;;;;;22.95;17.65;;;10.40;85.50;;;;;;5062407;28;20119;-76
2022/02/04 03:50:12;;;;;;;21.23;17.45;;;10.40;85.50;;;;;;5063134;28;20107;-75
2022/02/04 03:52:40;;;;;;;23.02;18.30;;;10.40;85.50;;;;;;5036127;28;20025;-76
2022/02/04 03:55:07;;;;;;;21.83;17.85;;;10.40;85.50;;;;;;5053308;28;20031;-75
2022/02/04 03:57:33;;;;;;;21.20;17.40;;;10.40;85.50;;;;;;5035922;28;20040;-76
2022/02/04 03:59:58;;;;;;;19.88;16.38;;;10.40;85.50;;;;;;5061709;28;20103;-76
2022/02/04 04:02:24;;;;;;;21.80;16.88;;;10.40;85.60;;;;;;5048564;28;20044;-76
2022/02/04 04:04:49;;;;;;;21.73;17.45;;;10.40;85.60;;;;;;5035724;28;20474;-76
2022/02/04 04:07:15;;;;;;;20.65;16.98;;;10.40;85.60;;;;;;5053802;28;20090;-75
2022/02/04 04:09:48;;;;;;;20.80;16.83;;;10.40;85.60;;;;;;5073147;28;20029;-76
2022/02/04 04:12:13;;;;;;;20.77;17.30;;;10.40;85.50;;;;;;5055070;28;20020;-76
2022/02/04 04:14:39;;;;;;;21.27;17.33;;;10.40;85.50;;;;;;5039152;28;20028;-75
2022/02/04 04:17:04;;;;;;;20.80;16.65;;;10.40;85.50;;;;;;5050871;28;20017;-76
2022/02/04 04:19:30;;;;;;;21.17;16.52;;;10.40;85.60;;;;;;5056040;28;20059;-75
2022/02/04 04:21:55;;;;;;;21.92;17.90;;;10.40;85.60;;;;;;5035145;28;20478;-76
2022/02/04 04:24:21;;;;;;;19.40;16.33;;;10.40;85.60;;;;;;5058098;28;20021;-76
2022/02/04 04:26:46;;;;;;;22.23;17.10;;;10.40;85.60;;;;;;5053319;28;20036;-76
2022/02/04 04:29:12;;;;;;;21.45;17.13;;;10.40;85.60;;;;;;5053507;28;20025;-76
2022/02/04 04:31:38;;;;;;;20.73;17.02;;;10.40;85.60;;;;;;5062454;28;20024;-75
2022/02/04 04:34:03;;;;;;;20.95;17.10;;;10.40;85.60;;;;;;5069578;28;20028;-76
2022/02/04 04:36:30;;;;;;;20.58;16.63;;;10.40;85.60;;;;;;5040363;28;20041;-76
2022/02/04 04:39:23;;;;;;;21.33;17.15;;;10.40;85.60;;;;;;5035109;28;20029;-75
2022/02/04 05:30:55;;;;;;;19.98;16.17;;;10.40;85.70;;;;;;5052141;28;20025;-75
2022/02/04 05:33:21;;;;;;;20.88;16.70;;;10.40;85.70;;;;;;5033903;28;20091;-76
2022/02/04 05:35:46;;;;;;;21.95;16.23;;;10.40;85.70;;;;;;5051067;28;20025;-76
2022/02/04 05:38:14;;;;;;;20.80;15.82;;;10.40;85.70;;;;;;5050849;28;20021;-76
2022/02/04 05:40:43;;;;;;;19.52;14.95;;;10.40;85.70;;;;;;5050646;28;20021;-76
2022/02/04 05:43:17;;;;;;;19.73;16.20;;;10.40;85.70;;;;;;5051015;28;20021;-75
2022/02/04 05:45:52;;;;;;;19.20;15.15;;;10.40;85.70;;;;;;5064095;28;20623;-78
2022/02/04 05:48:18;;;;;;;21.30;15.98;;;10.30;85.70;;;;;;5075109;28;20362;-75
2022/02/04 05:50:57;;;;;;;19.73;15.60;;;10.30;85.70;;;;;;5053819;28;20023;-75
2022/02/04 05:53:29;;;;;;;20.30;15.95;;;10.40;85.70;;;;;;5050134;28;20028;-75
2022/02/04 05:56:03;;;;;;;18.27;14.88;;;10.40;85.80;;;;;;5051109;28;20564;-79
2022/02/04 05:58:37;;;;;;;18.48;14.13;;;10.40;85.70;;;;;;5034061;28;20494;-73
2022/02/04 06:04:02;;;;;;;19.23;15.35;;;10.30;85.60;;;;;;5059777;28;20469;-75
2022/02/04 06:14:25;;;;;;;18.95;15.15;;;10.40;85.60;;;;;;5048736;28;20025;-75
2022/02/04 06:22:20;;;;;;;17.42;13.60;;;10.30;85.70;;;;;;5058850;28;20093;-75
2022/02/04 06:24:47;;;;;;;19.95;13.88;;;10.40;85.70;;;;;;5048399;28;20021;-76
2022/02/04 06:27:14;;;;;;;18.00;13.68;;;10.40;85.70;;;;;;5045254;28;20707;-76
2022/02/04 06:29:40;;;;;;;16.92;13.27;;;10.40;85.70;;;;;;5067962;28;20052;-76
2022/02/04 06:32:06;;;;;;;17.50;13.98;;;10.40;85.70;;;;;;5070218;28;20032;-75
2022/02/04 06:34:32;;;;;;;17.45;13.82;;;10.30;85.70;;;;;;5070103;28;20123;-75
2022/02/04 06:36:58;;;;;;;17.05;13.77;;;10.40;85.70;;;;;;5070592;28;20032;-75
2022/02/04 06:39:24;;;;;;;15.80;12.15;;;10.30;85.60;;;;;;5073258;28;20020;-76
2022/02/04 06:41:49;;;;;;;16.33;12.30;;;10.40;85.70;;;;;;5091119;28;20401;-75
2022/02/04 06:44:15;;;;;;;15.82;12.25;;;10.30;85.60;;;;;;5091990;28;20078;-76
2022/02/04 06:46:40;;;;;;;16.63;13.07;;;10.40;85.70;;;;;;5072997;28;20028;-76
2022/02/04 06:49:06;;;;;;;15.80;12.05;;;10.40;85.70;;;;;;5092389;28;20080;-76
2022/02/04 06:51:31;;;;;;;16.30;12.77;;;10.30;85.70;;;;;;5072866;28;20028;-75
2022/02/04 06:53:57;;;;;;;15.52;12.30;;;10.40;85.70;;;;;;5091907;28;20027;-76
2022/02/04 06:56:23;;;;;;;17.52;12.90;;;10.40;85.70;;;;;;5073559;28;20042;-75
2022/02/04 06:58:48;;;;;;;15.88;11.63;;;10.40;85.70;;;;;;5073621;28;20089;-76
2022/02/04 07:01:14;;;;;;;16.42;12.23;;;10.30;85.70;;;;;;5072758;28;20028;-75
2022/02/04 07:03:40;;;;;;;15.43;11.73;;;10.40;85.70;;;;;;5073107;28;20020;-76
2022/02/04 07:06:06;;;;;;;15.20;11.70;;;10.30;85.70;;;;;;5073063;28;20039;-76
2022/02/04 07:08:47;;;;;;;15.25;11.23;;;10.30;85.70;;;;;;5091890;28;20074;-76
2022/02/04 07:16:35;;;;;;;13.18;10.63;;;10.40;85.70;;;;;;5091549;28;20027;-76
2022/02/04 07:21:45;;;;;;;13.88;10.43;;;10.30;85.60;;;;;;5090610;28;20035;-75
2022/02/04 07:24:11;;;;;;;14.13;11.13;;;10.30;85.70;;;;;;5072739;28;20473;-76
2022/02/04 07:26:36;;;;;;;13.93;10.75;;;10.30;85.70;;;;;;5073314;28;20867;-75
2022/02/04 07:29:02;;;;;;;14.18;11.15;;;10.40;85.70;;;;;;5072602;28;20043;-76
2022/02/04 07:31:32;;;;;;;13.02;9.85;;;10.30;85.70;;;;;;5090277;28;20099;-74
2022/02/04 07:34:20;;;;;;;12.95;9.93;;;10.40;85.70;;;;;;5090535;28;20448;-75
2022/02/04 07:42:30;;;;;;;13.35;10.20;;;10.30;85.60;;;;;;5035916;28;20032;-76
2022/02/04 07:44:55;;;;;;;13.25;10.07;;;10.40;85.50;;;;;;5072732;28;20016;-75
2022/02/04 07:47:21;;;;;;;13.93;10.00;;;10.40;85.50;;;;;;5072954;28;20024;-76
2022/02/04 07:49:47;;;;;;;15.13;10.25;;;10.40;85.50;;;;;;5071207;28;20120;-75
2022/02/04 07:52:12;;;;;;;14.73;10.30;;;10.40;85.70;;;;;;5090621;28;20036;-76
2022/02/04 07:54:38;;;;;;;15.25;10.27;;;10.40;85.70;;;;;;5090374;28;20024;-76
2022/02/04 07:57:03;;;;;;;14.75;9.85;;;10.30;85.60;;;;;;5072926;28;20028;-76
2022/02/04 07:59:29;;;;;;;19.35;10.27;;;10.40;85.60;;;;;;5073629;28;20489;-75
2022/02/04 08:01:54;;;;;;;16.08;10.40;;;10.30;85.70;;;;;;5073682;28;20552;-77
2022/02/04 08:04:25;;;;;;;14.00;9.68;;;10.40;85.70;;;;;;5072913;28;20455;-76
2022/02/04 08:06:55;;;;;;;14.70;9.77;;;10.40;85.70;;;;;;5073247;28;20039;-76
2022/02/04 08:09:33;;;;;;;14.98;9.48;;;10.30;85.60;;;;;;5072773;28;20040;-76
2022/02/04 08:12:16;;;;;;;14.77;8.95;;;10.40;85.70;;;;;;5073260;28;20514;-77
2022/02/04 08:22:47;;;;;;;11.05;8.57;;;10.40;85.70;;;;;;5090563;28;20020;-75
2022/02/04 08:54:29;;;;;;;11.15;8.07;;;10.40;85.60;;;;;;5089423;28;20034;-75
2022/02/04 08:57:03;;;;;;;10.93;7.63;;;10.40;85.60;;;;;;5088737;28;20456;-76
2022/02/04 08:59:39;;;;;;;10.95;7.35;;;10.40;85.60;;;;;;5088566;28;20658;-78
2022/02/04 09:02:14;;;;;;;11.48;7.53;;;10.40;85.60;;;;;;5088805;28;20504;-75
2022/02/04 09:04:43;;;;;;;22.65;8.27;;;10.40;85.50;;;;;;5088409;28;20087;-75
2022/02/04 09:07:12;;;;;;;35.70;8.77;;;10.40;85.50;;;;;;5088733;28;20024;-75
2022/02/04 09:09:58;;;;;;;33.33;9.32;;;10.40;85.60;;;;;;5087977;28;20088;-75
2022/02/04 09:16:56;;;;;;;29.15;9.27;;;10.40;85.50;;;;;;5088425;28;20031;-75
2022/02/04 09:23:11;;;;;;;20.05;7.65;;;10.40;85.40;;;;;;5088589;28;20484;-75
2022/02/04 09:25:37;;;;;;;14.63;6.80;;;10.30;85.30;;;;;;5070067;28;20485;-74
2022/02/04 09:28:03;;;;;;;14.82;6.63;;;10.40;85.40;;;;;;5088498;28;20489;-75
2022/02/04 09:30:29;;;;;;;13.98;6.50;;;10.40;85.50;;;;;;5087606;28;20039;-75
2022/02/04 09:32:54;;;;;;;13.68;6.97;;;10.40;85.40;;;;;;5070184;28;20035;-76
2022/02/04 09:35:22;;;;;;;15.02;6.60;;;10.40;85.40;;;;;;5088240;28;20040;-75
2022/02/04 09:37:49;;;;;;;14.57;6.63;;;10.40;85.50;;;;;;5070191;28;20024;-74
2022/02/04 09:40:16;;;;;;;11.00;6.00;;;10.40;85.50;;;;;;5069444;28;20039;-75
2022/02/04 09:42:43;;;;;;;10.48;5.68;;;10.40;85.50;;;;;;5088289;28;20056;-74
2022/02/04 09:45:11;;;;;;;12.10;6.22;;;10.40;85.40;;;;;;5070168;28;20103;-76
2022/02/04 09:47:39;;;;;;;11.30;5.40;;;10.40;85.40;;;;;;5069952;28;20024;-75
2022/02/04 09:50:10;;;;;;;11.43;5.75;;;10.50;85.30;;;;;;5069540;28;20031;-75
2022/02/04 10:07:02;;;;;;;12.40;7.40;;;10.50;85.10;;;;;;5086652;28;20169;-75
2022/02/04 10:12:37;;;;;;;12.00;7.03;;;10.40;85.30;;;;;;5088694;28;20057;-74
2022/02/04 10:18:10;;;;;;;13.00;7.60;;;10.50;85.30;;;;;;5078572;28;20029;-75
2022/02/04 10:20:38;;;;;;;15.15;8.25;;;10.50;85.40;;;;;;5052567;28;20034;-74
2022/02/04 10:23:04;;;;;;;12.95;8.23;;;10.50;85.40;;;;;;5070381;28;20099;-74
2022/02/04 10:25:32;;;;;;;11.77;7.40;;;10.50;85.50;;;;;;5071362;28;20584;-74
2022/02/04 10:27:59;;;;;;;12.95;7.47;;;10.50;85.70;;;;;;5053223;28;20696;-75
2022/02/04 10:30:31;;;;;;;10.80;6.50;;;10.50;85.50;;;;;;5071266;28;20032;-75
2022/02/04 10:32:58;;;;;;;11.77;7.10;;;10.50;85.50;;;;;;5071368;28;20066;-74
2022/02/04 10:35:36;;;;;;;10.48;6.65;;;10.50;85.60;;;;;;5057267;28;20020;-76
2022/02/04 10:38:22;;;;;;;12.52;7.20;;;10.50;85.50;;;;;;5074370;28;20477;-76
2022/02/04 10:41:03;;;;;;;11.52;6.57;;;10.50;85.60;;;;;;5074876;28;20405;-77
2022/02/04 10:43:46;;;;;;;11.30;6.57;;;10.50;85.50;;;;;;5075372;28;20024;-77
2022/02/04 10:54:51;;;;;;;9.63;5.90;;;10.60;85.50;;;;;;5075479;28;20054;-77
2022/02/04 10:57:23;;;;;;;8.38;5.53;;;10.60;85.30;;;;;;5074906;28;20025;-76
2022/02/04 11:02:55;;;;;;;9.50;5.07;;;10.60;85.20;;;;;;5075460;28;20029;-76
2022/02/04 11:11:10;;;;;;;8.00;4.97;;;10.60;85.00;;;;;;5075010;28;20477;-76
2022/02/04 11:35:59;;;;;;;7.75;4.60;;;10.60;85.00;;;;;;5074786;28;20029;-76
2022/02/04 11:54:54;;;;;;;6.32;4.20;;;10.50;85.50;;;;;;5073967;28;20037;-76
2022/02/04 11:57:22;;;;;;;7.55;4.38;;;10.50;86.00;;;;;;5056153;28;20058;-76
2022/02/04 11:59:51;;;;;;;7.90;4.20;;;10.50;85.70;;;;;;5073695;28;20050;-76
2022/02/04 12:05:04;;;;;;;7.30;4.10;;;10.50;85.80;;;;;;5074037;28;20037;-77
2022/02/04 12:07:33;;;;;;;7.88;4.25;;;10.50;85.80;;;;;;5056182;28;20052;-77
2022/02/04 12:10:16;;;;;;;7.38;4.00;;;10.50;85.80;;;;;;5055627;28;20021;-77
2022/02/04 12:12:57;;;;;;;6.43;3.97;;;10.50;86.00;;;;;;5073836;28;20029;-77
2022/02/04 12:15:28;;;;;;;7.20;3.90;;;10.50;85.80;;;;;;5073932;28;20032;-76
2022/02/04 12:17:58;;;;;;;6.70;3.85;;;10.50;85.90;;;;;;5055840;28;20020;-77
2022/02/04 12:20:53;;;;;;;6.95;3.65;;;10.50;85.90;;;;;;5073459;28;20077;-76
2022/02/04 12:23:41;;;;;;;6.57;3.97;;;10.50;86.00;;;;;;5055649;28;20020;-77
2022/02/04 12:26:09;;;;;;;7.30;4.35;;;10.50;86.00;;;;;;5055533;28;20020;-77
2022/02/04 12:28:58;;;;;;;6.00;3.45;;;10.50;86.10;;;;;;5073401;28;20024;-76
2022/02/04 12:31:30;;;;;;;6.15;3.40;;;10.50;86.00;;;;;;5073127;28;20027;-76
2022/02/04 12:33:58;;;;;;;7.18;3.83;;;10.50;86.10;;;;;;5073306;28;20025;-76
2022/02/04 12:36:27;;;;;;;6.45;3.63;;;10.50;86.00;;;;;;5072870;28;20655;-76
2022/02/04 12:39:26;;;;;;;6.07;3.40;;;10.50;86.10;;;;;;5055274;28;20145;-76
2022/02/04 12:41:59;;;;;;;7.07;3.40;;;10.50;86.00;;;;;;5055202;28;20029;-76
2022/02/04 12:44:27;;;;;;;5.88;3.47;;;10.50;86.10;;;;;;5055301;28;20025;-77
2022/02/04 12:47:05;;;;;;;9.00;4.05;;;10.50;86.20;;;;;;5054866;28;20020;-76
2022/02/04 12:49:32;;;;;;;7.00;3.65;;;10.50;86.20;;;;;;5072840;28;20028;-76
2022/02/04 12:52:06;;;;;;;5.70;3.53;;;10.50;86.20;;;;;;5072975;28;20017;-77
2022/02/04 12:54:49;;;;;;;5.05;3.25;;;10.50;86.30;;;;;;5072908;28;20398;-77
2022/02/04 12:57:31;;;;;;;5.68;3.20;;;10.50;86.20;;;;;;5073061;28;20505;-77
2022/02/04 13:03:20;;;;;;;5.22;3.33;;;10.50;86.20;;;;;;5073326;28;20032;-77
2022/02/04 13:08:38;;;;;;;5.28;3.10;;;10.50;86.40;;;;;;5073223;28;20036;-77
2022/02/04 13:11:22;;;;;;;4.30;2.50;;;10.50;86.30;;;;;;5072545;28;20020;-77
2022/02/04 13:13:51;;;;;;;4.60;2.58;;;10.50;86.30;;;;;;5054888;28;20064;-77
2022/02/04 13:16:26;;;;;;;5.30;2.88;;;10.50;86.30;;;;;;5054664;28;20025;-76
2022/02/04 13:18:53;;;;;;;5.57;2.90;;;10.50;86.30;;;;;;5054741;28;20432;-76
2022/02/04 13:21:19;;;;;;;3.78;2.30;;;10.50;86.30;;;;;;5054387;28;20016;-77
2022/02/04 13:23:46;;;;;;;3.75;2.30;;;10.50;86.80;;;;;;5072310;28;20078;-77
2022/02/04 13:26:12;;;;;;;4.80;2.45;;;10.50;86.20;;;;;;5054614;28;20029;-76
2022/02/04 13:28:43;;;;;;;6.15;2.10;;;10.50;86.20;;;;;;5072443;28;20489;-77
2022/02/04 13:31:20;;;;;;;4.03;2.30;;;10.50;86.10;;;;;;5054415;28;20027;-77
2022/02/04 13:33:46;;;;;;;4.88;2.42;;;10.50;85.90;;;;;;5054856;28;20032;-77
2022/02/04 13:38:49;;;;;;;7.60;2.25;;;10.50;85.90;;;;;;5058696;28;20021;-77
2022/02/04 13:46:53;;;;;;;5.43;2.05;;;10.50;85.80;;;;;;5052894;28;20025;-75
2022/02/04 13:52:11;;;;;;;7.13;2.10;;;10.60;85.80;;;;;;5076601;28;20120;-76
2022/02/04 13:57:30;;;;;;;8.40;2.13;;;10.60;85.90;;;;;;5060083;28;20031;-76
2022/02/04 14:00:06;;;;;;;4.75;1.90;;;10.60;85.80;;;;;;5048703;28;20017;-76
2022/02/04 14:02:40;;;;;;;5.45;2.08;;;10.60;85.80;;;;;;5070668;28;20013;-76
2022/02/04 14:05:07;;;;;;;3.08;1.80;;;10.50;85.70;;;;;;5069781;28;20132;-76
2022/02/04 14:07:45;;;;;;;4.55;1.92;;;10.60;85.80;;;;;;5057910;28;20048;-76
2022/02/04 14:10:15;;;;;;;3.95;1.90;;;10.60;85.80;;;;;;5057754;28;20044;-77
2022/02/04 14:12:41;;;;;;;6.90;2.22;;;10.60;85.80;;;;;;5058149;28;20405;-76
2022/02/04 14:15:07;;;;;;;5.47;2.10;;;10.50;85.60;;;;;;5057928;28;20071;-76
2022/02/04 14:17:35;;;;;;;4.70;2.13;;;10.50;85.70;;;;;;5057934;28;20049;-75
2022/02/04 14:20:01;;;;;;;3.38;1.60;;;10.50;85.70;;;;;;5042078;28;20028;-77
2022/02/04 14:22:27;;;;;;;2.80;1.50;;;10.50;85.60;;;;;;5042107;28;20394;-77
2022/02/04 14:24:52;;;;;;;4.30;1.95;;;10.50;85.80;;;;;;5059276;28;20103;-77
2022/02/04 14:27:18;;;;;;;3.95;2.00;;;10.50;85.70;;;;;;5052705;28;20116;-77
2022/02/04 14:30:03;;;;;;;5.18;1.80;;;10.50;85.70;;;;;;5049732;28;20439;-77
2022/02/04 14:32:39;;;;;;;5.03;1.90;;;10.50;85.80;;;;;;5037796;28;20060;-76
2022/02/04 14:51:59;;;;;;;13.82;3.17;;;10.50;85.90;;;;;;5055311;28;20095;-76
2022/02/04 14:54:48;;;;;;;21.35;3.30;;;10.50;85.90;;;;;;5055235;28;20552;-75
2022/02/04 15:03:03;;;;;;;20.52;3.40;;;10.50;86.00;;;;;;5055940;28;20474;-78
2022/02/04 15:05:38;;;;;;;16.77;3.75;;;10.50;85.80;;;;;;5055578;28;20490;-77
2022/02/04 15:08:09;;;;;;;15.50;3.30;;;10.50;85.80;;;;;;5037659;28;20028;-77
2022/02/04 15:10:37;;;;;;;21.92;3.70;;;10.50;85.90;;;;;;5036837;28;20063;-76
2022/02/04 15:13:03;;;;;;;15.27;3.35;;;10.50;86.00;;;;;;5037103;28;20409;-77
2022/02/04 15:15:28;;;;;;;11.82;2.60;;;10.50;85.80;;;;;;5036932;28;20024;-77
2022/02/04 15:17:54;;;;;;;18.13;2.92;;;10.50;86.00;;;;;;5056496;28;20024;-76
2022/02/04 15:20:20;;;;;;;10.38;2.60;;;10.50;85.90;;;;;;5069734;28;20017;-76
2022/02/04 15:22:46;;;;;;;12.73;2.70;;;10.50;85.70;;;;;;5072312;28;20042;-76
2022/02/04 15:25:19;;;;;;;25.10;3.53;;;10.50;85.50;;;;;;5074500;28;20048;-77
2022/02/04 15:27:54;;;;;;;23.95;3.75;;;10.50;85.60;;;;;;5062044;28;20017;-76
2022/02/04 15:30:26;;;;;;;45.55;5.45;;;10.50;85.50;;;;;;5050160;28;20029;-76
2022/02/04 15:32:52;;;;;;;60.05;6.07;;;10.50;85.80;;;;;;5066480;28;20424;-76
2022/02/04 15:35:18;;;;;;;57.35;6.18;;;10.50;85.90;;;;;;5051449;28;20035;-76
2022/02/04 15:37:43;;;;;;;66.78;8.40;;;10.50;85.80;;;;;;5069280;28;20051;-77
2022/02/04 15:40:10;;;;;;;53.53;6.22;;;10.50;85.90;;;;;;5036158;28;20146;-76
2022/02/04 15:42:38;;;;;;;75.55;7.47;;;10.50;85.90;;;;;;5051106;28;20068;-76
2022/02/04 15:45:39;;;;;;;76.35;8.13;;;10.50;86.00;;;;;;5056256;28;20040;-76
2022/02/04 15:50:42;;;;;;;60.10;8.15;;;10.50;86.00;;;;;;5073797;28;20115;-76
2022/02/04 15:58:26;;;;;;;68.05;8.35;;;10.50;85.80;;;;;;5074208;28;20029;-76
2022/02/04 16:01:19;;;;;;;56.85;6.63;;;10.50;85.90;;;;;;5055570;28;20555;-76
2022/02/04 16:04:04;;;;;;;54.80;7.03;;;10.60;85.70;;;;;;5055533;28;20485;-76
2022/02/04 16:06:29;;;;;;;58.00;8.07;;;10.60;85.80;;;;;;5035981;28;20124;-76
2022/02/04 16:08:57;;;;;;;64.57;7.75;;;10.50;85.80;;;;;;5053375;28;20055;-76
2022/02/04 16:11:52;;;;;;;66.07;7.43;;;10.60;86.00;;;;;;5060443;28;20028;-76
2022/02/04 16:14:24;;;;;;;39.25;6.05;;;10.60;86.10;;;;;;5053643;28;20021;-77
2022/02/04 16:17:27;;;;;;;40.97;5.60;;;10.60;86.20;;;;;;5047494;28;20020;-76
2022/02/04 16:19:46;;;;;;;36.38;5.97;;;10.60;86.10;;;;;;5051755;28;20121;-76
2022/02/04 16:30:00;;;;;;;35.08;6.30;;;10.50;86.40;;;;;;5053270;28;20115;-76
2022/02/04 16:32:28;;;;;;;40.65;7.13;;;10.50;86.60;;;;;;5052972;28;20028;-76
2022/02/04 16:34:55;;;;;;;37.28;5.78;;;10.50;86.60;;;;;;5035277;28;20067;-76
2022/02/04 16:39:56;;;;;;;34.35;6.35;;;10.60;86.00;;;;;;5061616;28;20025;-77
2022/02/04 16:42:21;;;;;;;40.47;8.93;;;10.60;86.20;;;;;;5059622;28;20089;-78
2022/02/04 16:44:47;;;;;;;42.05;9.60;;;10.50;86.30;;;;;;5053377;28;20501;-77
2022/02/04 16:47:12;;;;;;;41.13;9.57;;;10.50;86.20;;;;;;5059594;28;20056;-80
2022/02/04 16:49:38;;;;;;;55.53;11.63;;;10.50;86.50;;;;;;5034946;28;20625;-76
2022/02/04 16:52:07;;;;;;;82.35;13.57;;;10.50;86.70;;;;;;5035464;28;20021;-75
2022/02/04 16:54:37;;;;;;;82.07;13.90;;;10.50;86.90;;;;;;5035183;28;20065;-76
2022/02/04 16:57:04;;;;;;;109.05;15.95;;;10.50;86.40;;;;;;5035590;28;20457;-76
2022/02/04 16:59:31;;;;;;;183.23;19.63;;;10.50;86.50;;;;;;5053010;28;20053;-76
2022/02/04 17:01:57;;;;;;;191.40;25.00;;;10.50;86.60;;;;;;5052163;28;20448;-76
2022/02/04 17:04:24;;;;;;;226.25;26.58;;;10.50;86.70;;;;;;5041369;28;20037;-76
2022/02/04 17:06:58;;;;;;;228.57;28.20;;;10.50;86.80;;;;;;5069040;28;20021;-74
2022/02/04 17:09:29;;;;;;;289.75;29.67;;;10.50;86.80;;;;;;5061454;28;20032;-75
2022/02/04 17:12:10;;;;;;;116.47;17.70;;;10.50;87.00;;;;;;5052024;28;20123;-74
2022/02/04 17:14:36;;;;;;;;;;;10.50;86.10;;;;;;5073118;28;20255;-74
2022/02/04 17:17:04;;;;;;;94.07;43.25;;;10.70;86.00;;;;;;5054623;28;20007;-74
2022/02/04 17:19:36;;;;;;;75.47;37.70;;;11.00;84.80;;;;;;5049476;28;20456;-76
2022/02/04 17:22:04;;;;;;;56.55;29.70;;;11.10;84.00;;;;;;5052321;28;20021;-74
2022/02/04 17:24:31;;;;;;;53.67;26.50;;;11.20;82.90;;;;;;5064422;28;20020;-76
2022/02/04 17:26:58;;;;;;;65.85;27.40;;;11.20;82.40;;;;;;5052013;28;20036;-76
2022/02/04 17:29:27;;;;;;;105.50;29.77;;;11.10;82.90;;;;;;5056348;28;20041;-75
2022/02/04 17:31:53;;;;;;;111.45;27.67;;;11.00;83.90;;;;;;5034164;28;20033;-75
2022/02/04 17:34:18;;;;;;;117.30;25.80;;;10.90;84.60;;;;;;5052715;28;20074;-75
2022/02/04 17:36:44;;;;;;;128.05;25.60;;;10.80;85.10;;;;;;5054189;28;20021;-75
2022/02/04 17:39:18;;;;;;;132.30;27.10;;;10.70;85.60;;;;;;5072512;28;20393;-75
2022/02/04 17:41:45;;;;;;;98.55;22.73;;;10.60;85.80;;;;;;5054415;28;20070;-75
2022/02/04 17:44:14;;;;;;;108.90;22.35;;;10.60;86.10;;;;;;5054420;28;20397;-75
2022/02/04 17:46:41;;;;;;;109.32;20.15;;;10.50;86.00;;;;;;5072161;28;20032;-75
2022/02/04 17:49:19;;;;;;;90.53;17.33;;;10.50;86.00;;;;;;5071837;28;20021;-70
2022/02/04 17:54:30;;;;;;;91.60;14.20;;;10.50;85.80;;;;;;5072454;28;20466;-75
2022/02/04 17:57:08;;;;;;;60.85;12.65;;;10.50;85.60;;;;;;5071828;28;20021;-77
2022/02/04 18:02:26;;;;;;;56.30;11.32;;;10.40;85.40;;;;;;5052434;28;20026;-74
2022/02/04 18:07:29;;;;;;;47.15;9.60;;;10.40;85.20;;;;;;5072340;28;20113;-75
2022/02/04 18:09:55;;;;;;;50.58;9.88;;;10.50;85.10;;;;;;5071857;28;20068;-75
2022/02/04 18:12:31;;;;;;;41.10;9.15;;;10.40;84.90;;;;;;5054395;28;20031;-76
2022/02/04 18:14:57;;;;;;;38.25;7.80;;;10.40;84.80;;;;;;5055563;28;20024;-75
2022/02/04 18:17:22;;;;;;;39.47;7.80;;;10.40;84.80;;;;;;5033911;28;20021;-75
2022/02/04 18:19:48;;;;;;;40.00;7.35;;;10.40;84.90;;;;;;5033872;28;20108;-74
2022/02/04 18:22:14;;;;;;;32.47;7.43;;;10.40;84.80;;;;;;5034244;28;20021;-74
2022/02/04 18:24:39;;;;;;;38.00;6.93;;;10.40;84.70;;;;;;5055435;28;20398;-75
2022/02/04 18:27:08;;;;;;;32.75;6.72;;;10.40;84.60;;;;;;5045699;28;20043;-76
2022/02/04 18:29:35;;;;;;;37.63;7.22;;;10.40;84.50;;;;;;5069792;28;20054;-76
2022/02/04 18:32:00;;;;;;;24.23;5.85;;;10.40;84.40;;;;;;5072434;28;20457;-75
2022/02/04 18:34:26;;;;;;;34.28;6.22;;;10.40;84.40;;;;;;5057179;28;20111;-76
2022/02/04 18:36:54;;;;;;;30.60;6.03;;;10.40;84.40;;;;;;5057664;28;20037;-76
2022/02/04 18:44:52;;;;;;;22.92;4.88;;;10.40;84.00;;;;;;5075425;28;20016;-75
2022/02/04 18:47:27;;;;;;;19.95;4.55;;;10.40;84.00;;;;;;5074854;28;20388;-75
2022/02/04 18:50:00;;;;;;;16.83;4.25;;;10.40;84.00;;;;;;5075358;28;20029;-77
2022/02/04 18:52:56;;;;;;;16.98;3.85;;;10.40;83.90;;;;;;5056681;28;20507;-75
2022/02/04 18:58:07;;;;;;;19.58;4.07;;;10.40;83.80;;;;;;5075589;28;20021;-75
2022/02/04 19:00:33;;;;;;;13.00;3.60;;;10.40;83.70;;;;;;5059038;28;20021;-75
2022/02/04 19:03:02;;;;;;;21.05;4.90;;;10.40;83.60;;;;;;5037122;28;20529;-76
2022/02/04 19:05:33;;;;;;;15.23;3.45;;;10.40;83.60;;;;;;5042583;28;20393;-76
2022/02/04 19:10:27;;;;;;;11.13;3.35;;;10.40;83.50;;;;;;5073547;28;20024;-75